Time;durP1;ratioP1;P1;durP2;ratioP2;P2;SDS_P1;SDS_P2;PMS_P1;PMS_P2;Temp;Humidity;BMP_temperature;BMP_pressure;BME280_temperature;BME280_humidity;BME280_pressure;Samples;Min_cycle;Max_cycle;Signal;HPM_P1;HPM_P2
2022/02/01 00:01:59;;;;;;;;;;;6.50;91.70;;;;;;5080238;28;19908;-72
2022/02/01 00:04:42;;;;;;;;;;;6.60;91.70;;;;;;5080355;28;19915;-72
2022/02/01 00:10:17;;;;;;;;;;;6.60;91.70;;;;;;5077833;28;19908;-71
2022/02/01 00:35:11;;;;;;;;;;;6.90;91.30;;;;;;5073636;28;20329;-72
2022/02/01 00:37:07;;;;;;;;;;;6.90;91.30;;;;;;5076522;28;19908;-72
2022/02/01 00:39:42;;;;;;;;;;;6.90;91.20;;;;;;5079610;28;19908;-72
2022/02/01 00:42:08;;;;;;;;;;;6.80;91.20;;;;;;5079302;28;19919;-72
2022/02/01 00:44:34;;;;;;;;;;;6.90;91.20;;;;;;5079383;28;20410;-72
2022/02/01 00:46:59;;;;;;;;;;;6.90;91.20;;;;;;5079697;28;19908;-71
2022/02/01 00:49:27;;;;;;;;;;;6.90;91.20;;;;;;5079479;28;19908;-71
2022/02/01 00:51:53;;;;;;;;;;;6.80;91.20;;;;;;5079451;28;19950;-71
2022/02/01 00:54:19;;;;;;;;;;;6.90;91.20;;;;;;5078886;28;19991;-72
2022/02/01 00:56:44;;;;;;;;;;;6.90;91.20;;;;;;5079013;28;19948;-72
2022/02/01 00:59:10;;;;;;;;;;;6.90;91.30;;;;;;5078016;28;19908;-72
2022/02/01 01:01:35;;;;;;;;;;;6.90;91.30;;;;;;5079362;28;19912;-72
2022/02/01 01:04:01;;;;;;;;;;;6.90;91.30;;;;;;5079344;28;19963;-72
2022/02/01 01:06:28;;;;;;;;;;;6.90;91.30;;;;;;5079062;28;19908;-71
2022/02/01 01:08:54;;;;;;;;;;;6.90;91.30;;;;;;5079001;28;19909;-72
2022/02/01 01:11:20;;;;;;;;;;;7.00;91.40;;;;;;5078673;28;19912;-72
2022/02/01 01:43:55;;;;;;;;;;;7.20;91.70;;;;;;5078181;28;19972;-71
2022/02/01 01:54:15;;;;;;;;;;;7.30;91.70;;;;;;5077758;28;19943;-71
2022/02/01 01:56:41;;;;;;;;;;;7.30;91.70;;;;;;5076599;28;19909;-71
2022/02/01 01:59:08;;;;;;;;;;;7.30;91.70;;;;;;5077938;28;19935;-71
2022/02/01 02:01:34;;;;;;;;;;;7.30;91.60;;;;;;5078293;28;19908;-72
2022/02/01 02:04:00;;;;;;;;;;;7.30;91.60;;;;;;5078052;28;19999;-72
2022/02/01 02:06:26;;;;;;;;;;;7.30;91.60;;;;;;5078158;28;20012;-71
2022/02/01 02:08:54;;;;;;;;;;;7.30;91.70;;;;;;5076684;28;19908;-72
2022/02/01 02:11:39;;;;;;;;;;;7.30;91.70;;;;;;5077638;28;19959;-72
2022/02/01 02:14:23;;;;;;;;;;;7.30;91.60;;;;;;5078054;28;19916;-71
2022/02/01 02:16:57;;;;;;;;;;;7.30;91.60;;;;;;5077781;28;19908;-72
2022/02/01 02:19:24;;;;;;;;;;;7.40;91.70;;;;;;5076651;28;19908;-72
2022/02/01 02:21:54;;;;;;;;;;;7.30;91.60;;;;;;5057843;28;20322;-71
2022/02/01 02:24:21;;;;;;;;;;;7.30;91.60;;;;;;5057516;28;19916;-72
2022/02/01 02:26:48;;;;;;;;;;;7.30;91.60;;;;;;5061429;28;19955;-72
2022/02/01 02:29:14;;;;;;;;;;;7.30;91.70;;;;;;5076480;28;19947;-72
2022/02/01 02:31:40;;;;;;;;;;;7.20;91.80;;;;;;5077347;28;19916;-72
2022/02/01 02:34:09;;;;;;;;;;;7.20;92.00;;;;;;5075069;28;19935;-73
2022/02/01 02:36:44;;;;;;;;;;;7.20;92.00;;;;;;5077633;28;19909;-72
2022/02/01 02:39:25;;;;;;;;;;;7.20;92.10;;;;;;5076744;28;19908;-73
2022/02/01 02:42:08;;;;;;;;;;;7.20;92.20;;;;;;5073950;28;20022;-73
2022/02/01 02:47:22;;;;;;;;;;;7.20;92.10;;;;;;5066771;28;19916;-73
2022/02/01 02:49:48;;;;;;;;;;;7.20;92.20;;;;;;5078498;28;20368;-73
2022/02/01 02:52:13;;;;;;;;;;;7.20;92.20;;;;;;5081430;28;19927;-72
2022/02/01 02:54:39;;;;;;;;;;;7.20;92.30;;;;;;5081132;28;19970;-71
2022/02/01 02:57:06;;;;;;;;;;;7.20;92.30;;;;;;5081347;28;20398;-72
2022/02/01 02:59:32;;;;;;;;;;;7.20;92.40;;;;;;5081477;28;19920;-73
2022/02/01 03:01:58;;;;;;;;;;;7.20;92.40;;;;;;5080278;28;20295;-72
2022/02/01 03:04:24;;;;;;;;;;;7.20;92.40;;;;;;5081270;28;20006;-72
2022/02/01 03:06:51;;;;;;;;;;;7.20;92.50;;;;;;5081543;28;19991;-71
2022/02/01 03:09:18;;;;;;;;;;;7.20;92.30;;;;;;5080618;28;19923;-71
2022/02/01 03:11:44;;;;;;;;;;;7.10;92.30;;;;;;5080214;28;19923;-71
2022/02/01 03:14:42;;;;;;;;;;;7.10;92.30;;;;;;5081141;28;19909;-71
2022/02/01 03:19:58;;;;;;;;;;;7.10;92.40;;;;;;5081307;28;19955;-71
2022/02/01 03:22:27;;;;;;;;;;;7.00;92.50;;;;;;5080938;28;19912;-71
2022/02/01 03:24:54;;;;;;;;;;;7.10;92.70;;;;;;5077105;28;19915;-71
2022/02/01 03:27:20;;;;;;;;;;;7.10;92.70;;;;;;5080795;28;20375;-71
2022/02/01 03:29:46;;;;;;;;;;;7.00;92.70;;;;;;5079706;28;20006;-71
2022/02/01 03:32:11;;;;;;;;;;;7.10;92.80;;;;;;5080851;28;20357;-71
2022/02/01 03:34:37;;;;;;;;;;;7.10;92.90;;;;;;5080790;28;19959;-71
2022/02/01 03:37:03;;;;;;;;;;;7.10;93.00;;;;;;5080370;28;19966;-71
2022/02/01 03:39:29;;;;;;;;;;;7.10;92.90;;;;;;5079809;28;19919;-71
2022/02/01 03:41:55;;;;;;;;;;;7.10;93.00;;;;;;5079880;28;20287;-71
2022/02/01 03:44:20;;;;;;;;;;;7.20;93.20;;;;;;5079171;28;19925;-72
2022/02/01 03:46:59;;;;;;;;;;;7.20;93.20;;;;;;5078597;28;20010;-71
2022/02/01 03:49:25;;;;;;;;;;;7.20;93.20;;;;;;5079094;28;19917;-71
2022/02/01 03:51:51;;;;;;;;;;;7.30;93.30;;;;;;5078453;28;19962;-71
2022/02/01 03:54:16;;;;;;;;;;;7.30;93.30;;;;;;5078322;28;19923;-71
2022/02/01 03:56:42;;;;;;;;;;;7.30;93.30;;;;;;5078241;28;20379;-71
2022/02/01 03:59:07;;;;;;;;;;;7.40;93.40;;;;;;5078998;28;19912;-71
2022/02/01 04:01:33;;;;;;;;;;;7.40;93.50;;;;;;5077548;28;19913;-71
2022/02/01 04:03:59;;;;;;;;;;;7.50;93.50;;;;;;5076038;28;19920;-71
2022/02/01 04:06:24;;;;;;;;;;;7.40;93.30;;;;;;5078134;28;19920;-71
2022/02/01 04:08:50;;;;;;;;;;;7.40;93.30;;;;;;5078420;28;19916;-71
2022/02/01 04:11:16;;;;;;;;;;;7.50;93.30;;;;;;5077988;28;19924;-71
2022/02/01 04:13:42;;;;;;;;;;;7.50;93.40;;;;;;5079014;28;19999;-71
2022/02/01 04:16:08;;;;;;;;;;;7.50;93.40;;;;;;5078829;28;19909;-71
2022/02/01 04:18:33;;;;;;;;;;;7.50;93.40;;;;;;5079233;28;19916;-71
2022/02/01 04:20:59;;;;;;;;;;;7.60;93.50;;;;;;5078982;28;19914;-71
2022/02/01 04:23:25;;;;;;;;;;;7.60;93.60;;;;;;5077626;28;19909;-71
2022/02/01 04:25:51;;;;;;;;;;;7.60;93.60;;;;;;5068827;28;19916;-71
2022/02/01 04:28:17;;;;;;;;;;;7.60;93.70;;;;;;5078272;28;19919;-72
2022/02/01 04:30:42;;;;;;;;;;;7.60;93.70;;;;;;5078540;28;19920;-71
2022/02/01 04:33:08;;;;;;;;;;;7.60;93.70;;;;;;5077905;28;20007;-71
2022/02/01 04:35:34;;;;;;;;;;;7.60;93.80;;;;;;5077955;28;19912;-71
2022/02/01 04:38:00;;;;;;;;;;;7.70;93.90;;;;;;5077933;28;19912;-71
2022/02/01 04:40:26;;;;;;;;;;;7.70;93.90;;;;;;5078097;28;20316;-71
2022/02/01 04:42:52;;;;;;;;;;;7.70;94.00;;;;;;5007221;28;1991990;-71
2022/02/01 04:45:21;;;;;;;;;;;7.70;94.00;;;;;;5079425;28;19997;-71
2022/02/01 04:47:47;;;;;;;;;;;7.70;94.00;;;;;;5078739;28;19912;-71
2022/02/01 04:50:17;;;;;;;;;;;7.70;94.10;;;;;;5074937;28;19912;-71
2022/02/01 04:52:45;;;;;;;;;;;7.80;94.10;;;;;;5070749;28;19923;-71
2022/02/01 04:55:11;;;;;;;;;;;7.80;94.20;;;;;;5078562;28;19912;-71
2022/02/01 04:57:44;;;;;;;;;;;7.80;94.20;;;;;;5078399;28;20317;-71
2022/02/01 05:00:10;;;;;;;;;;;7.80;94.10;;;;;;5066553;28;19908;-71
2022/02/01 05:02:35;;;;;;;;;;;7.80;94.20;;;;;;5078691;28;19920;-71
2022/02/01 05:05:01;;;;;;;;;;;7.80;94.10;;;;;;5077317;28;19936;-71
2022/02/01 05:07:26;;;;;;;;;;;7.80;94.10;;;;;;5078656;28;19913;-71
2022/02/01 05:09:54;;;;;;;;;;;7.90;94.30;;;;;;5077901;28;19966;-71
2022/02/01 05:12:20;;;;;;;;;;;8.00;94.30;;;;;;5077130;28;19917;-71
2022/02/01 05:14:48;;;;;;;;;;;8.00;94.30;;;;;;5077807;28;19919;-72
2022/02/01 05:17:16;;;;;;;;;;;8.00;94.20;;;;;;5077381;28;19912;-71
2022/02/01 05:22:09;;;;;;;;;;;8.00;94.20;;;;;;5066958;28;20360;-71
2022/02/01 05:24:37;;;;;;;;;;;8.00;94.10;;;;;;5074401;28;19913;-72
2022/02/01 05:27:05;;;;;;;;;;;8.00;94.10;;;;;;5078202;28;20286;-71
2022/02/01 05:29:31;;;;;;;;;;;8.00;94.10;;;;;;5078093;28;19924;-71
2022/02/01 05:31:58;;;;;;;;;;;8.00;94.20;;;;;;5077981;28;19921;-71
2022/02/01 05:34:24;;;;;;;;;;;8.00;94.50;;;;;;5078007;28;19921;-71
2022/02/01 05:36:50;;;;;;;;;;;8.00;94.20;;;;;;5078114;28;19915;-71
2022/02/01 05:39:20;;;;;;;;;;;8.00;94.20;;;;;;5077924;28;19912;-72
2022/02/01 05:41:46;;;;;;;;;;;8.00;94.30;;;;;;5077372;28;19919;-71
2022/02/01 05:44:11;;;;;;;;;;;8.00;94.30;;;;;;5077432;28;19924;-71
2022/02/01 05:46:37;;;;;;;;;;;8.00;94.30;;;;;;5077796;28;19913;-71
2022/02/01 05:49:06;;;;;;;;;;;8.00;94.30;;;;;;5077676;28;19912;-71
2022/02/01 05:51:32;;;;;;;;;;;8.10;94.40;;;;;;5077548;28;19920;-72
2022/02/01 05:53:57;;;;;;;;;;;8.10;94.30;;;;;;5076897;28;19912;-71
2022/02/01 05:56:23;;;;;;;;;;;8.10;94.40;;;;;;5077248;28;20444;-71
2022/02/01 05:58:49;;;;;;;;;;;8.10;94.50;;;;;;5077717;28;19961;-72
2022/02/01 06:01:15;;;;;;;;;;;8.10;94.40;;;;;;5077780;28;19956;-72
2022/02/01 06:03:40;;;;;;;;;;;8.10;94.50;;;;;;5077714;28;20403;-72
2022/02/01 06:06:07;;;;;;;;;;;8.10;94.50;;;;;;5077224;28;19981;-73
2022/02/01 06:08:33;;;;;;;;;;;8.20;94.60;;;;;;5078049;28;19908;-74
2022/02/01 06:10:59;;;;;;;;;;;8.20;94.60;;;;;;5076200;28;19924;-76
2022/02/01 06:13:25;;;;;;;;;;;8.20;94.60;;;;;;5076194;28;19912;-73
2022/02/01 06:15:51;;;;;;;;;;;8.30;94.60;;;;;;5076249;28;19918;-71
2022/02/01 06:18:16;;;;;;;;;;;8.30;94.70;;;;;;5076737;28;19916;-72
2022/02/01 06:20:42;;;;;;;;;;;8.30;94.60;;;;;;5077107;28;20081;-72
2022/02/01 06:23:13;;;;;;;;;;;8.30;94.70;;;;;;5063729;28;19936;-72
2022/02/01 06:28:04;;;;;;;;;;;8.30;94.60;;;;;;5077008;28;19912;-73
2022/02/01 06:30:29;;;;;;;;;;;8.30;94.60;;;;;;5077374;28;19913;-72
2022/02/01 06:32:55;;;;;;;;;;;8.30;94.70;;;;;;5077236;28;19922;-72
2022/02/01 06:35:22;;;;;;;;;;;8.30;94.70;;;;;;5077076;28;19995;-72
2022/02/01 06:37:47;;;;;;;;;;;8.30;94.60;;;;;;5076627;28;19959;-72
2022/02/01 06:40:14;;;;;;;;;;;8.30;94.70;;;;;;5076821;28;19912;-71
2022/02/01 06:42:40;;;;;;;;;;;8.30;94.60;;;;;;5076686;28;19917;-69
2022/02/01 06:45:06;;;;;;;;;;;8.30;94.60;;;;;;5068048;28;19927;-69
2022/02/01 06:47:31;;;;;;;;;;;8.40;94.70;;;;;;5074690;28;19912;-69
2022/02/01 06:49:57;;;;;;;;;;;8.40;94.70;;;;;;5077746;28;19919;-69
2022/02/01 06:52:23;;;;;;;;;;;8.40;94.70;;;;;;5076791;28;19944;-70
2022/02/01 06:54:49;;;;;;;;;;;8.30;94.70;;;;;;5076842;28;20278;-69
2022/02/01 06:57:14;;;;;;;;;;;8.40;94.80;;;;;;5075809;28;20023;-69
2022/02/01 06:59:40;;;;;;;;;;;8.40;94.70;;;;;;5076616;28;19912;-69
2022/02/01 07:02:06;;;;;;;;;;;8.40;94.80;;;;;;5077064;28;19912;-69
2022/02/01 07:04:32;;;;;;;;;;;8.40;94.80;;;;;;5077084;28;19913;-69
2022/02/01 07:06:57;;;;;;;;;;;8.40;94.80;;;;;;5076122;28;19951;-69
2022/02/01 07:09:23;;;;;;;;;;;8.40;94.80;;;;;;5075965;28;19912;-69
2022/02/01 07:11:49;;;;;;;;;;;8.40;94.70;;;;;;5076151;28;19917;-69
2022/02/01 07:14:15;;;;;;;;;;;8.40;94.80;;;;;;5075592;28;19999;-69
2022/02/01 07:16:40;;;;;;;;;;;8.40;94.70;;;;;;5075523;28;19990;-69
2022/02/01 07:19:06;;;;;;;;;;;8.50;94.90;;;;;;5075867;28;20015;-69
2022/02/01 07:21:32;;;;;;;;;;;8.50;94.90;;;;;;5076726;28;19948;-69
2022/02/01 07:24:00;;;;;;;;;;;8.50;94.90;;;;;;5076712;28;19912;-68
2022/02/01 07:26:26;;;;;;;;;;;8.50;94.90;;;;;;5071716;28;19909;-69
2022/02/01 07:28:51;;;;;;;;;;;8.60;94.90;;;;;;5076559;28;20016;-69
2022/02/01 07:31:17;;;;;;;;;;;8.50;94.80;;;;;;5076189;28;19916;-68
2022/02/01 07:33:43;;;;;;;;;;;8.60;95.00;;;;;;5076676;28;19952;-69
2022/02/01 07:36:10;;;;;;;;;;;8.60;95.00;;;;;;5078011;28;19947;-69
2022/02/01 07:38:36;;;;;;;;;;;8.60;94.90;;;;;;5080424;28;19962;-69
2022/02/01 07:41:01;;;;;;;;;;;8.60;94.90;;;;;;5080127;28;19913;-69
2022/02/01 07:43:30;;;;;;;;;;;8.60;94.90;;;;;;5079020;28;19928;-69
2022/02/01 07:45:58;;;;;;;;;;;8.60;94.80;;;;;;5079773;28;19919;-69
2022/02/01 07:48:24;;;;;;;;;;;8.60;94.80;;;;;;5080097;28;19912;-69
2022/02/01 07:50:49;;;;;;;;;;;8.60;94.80;;;;;;5079268;28;20389;-69
2022/02/01 07:53:15;;;;;;;;;;;8.60;94.70;;;;;;5078986;28;19978;-69
2022/02/01 07:55:40;;;;;;;;;;;8.60;94.80;;;;;;5079972;28;19958;-69
2022/02/01 07:58:06;;;;;;;;;;;8.60;94.80;;;;;;5078405;28;19971;-69
2022/02/01 08:00:32;;;;;;;;;;;8.60;94.80;;;;;;5079542;28;19913;-69
2022/02/01 08:02:58;;;;;;;;;;;8.60;94.60;;;;;;5079625;28;19912;-69
2022/02/01 08:05:25;;;;;;;;;;;8.60;94.70;;;;;;5080112;28;19919;-69
2022/02/01 08:07:51;;;;;;;;;;;8.70;94.70;;;;;;5080235;28;20344;-69
2022/02/01 08:10:18;;;;;;;;;;;8.80;94.70;;;;;;5078932;28;19917;-69
2022/02/01 08:20:42;;;;;;;;;;;8.80;94.60;;;;;;5079474;28;19913;-69
2022/02/01 08:23:08;;;;;;;;;;;8.80;94.50;;;;;;5078309;28;19913;-69
2022/02/01 08:25:34;;;;;;;;;;;8.80;94.50;;;;;;5077596;28;20011;-69
2022/02/01 08:28:01;;;;;;;;;;;8.80;94.40;;;;;;5078922;28;19931;-69
2022/02/01 08:30:27;;;;;;;;;;;8.90;94.50;;;;;;5079159;28;19943;-69
2022/02/01 08:32:52;;;;;;;;;;;8.90;94.50;;;;;;5079773;28;19919;-69
2022/02/01 08:35:18;;;;;;;;;;;8.90;94.30;;;;;;5079411;28;19913;-69
2022/02/01 08:37:44;;;;;;;;;;;8.90;94.30;;;;;;5079702;28;19915;-69
2022/02/01 08:40:12;;;;;;;;;;;9.00;94.30;;;;;;5078813;28;20303;-69
2022/02/01 08:42:39;;;;;;;;;;;9.00;94.20;;;;;;5077794;28;19921;-69
2022/02/01 08:45:05;;;;;;;;;;;9.00;94.20;;;;;;5078880;28;19919;-69
2022/02/01 08:47:30;;;;;;;;;;;9.00;94.10;;;;;;5077935;28;20395;-69
2022/02/01 08:49:56;;;;;;;;;;;9.10;94.10;;;;;;5078380;28;19921;-69
2022/02/01 08:52:37;;;;;;;;;;;9.10;94.10;;;;;;5078841;28;19916;-69
2022/02/01 08:55:05;;;;;;;;;;;9.10;94.00;;;;;;5071224;28;19916;-69
2022/02/01 08:57:31;;;;;;;;;;;9.20;94.00;;;;;;5078564;28;19921;-69
2022/02/01 09:00:03;;;;;;;;;;;9.20;94.00;;;;;;5078934;28;19924;-69
2022/02/01 09:02:29;;;;;;;;;;;9.30;93.90;;;;;;5078225;28;19919;-69
2022/02/01 09:04:55;;;;;;;;;;;9.40;93.90;;;;;;5078157;28;19913;-69
2022/02/01 09:07:21;;;;;;;;;;;9.40;93.80;;;;;;5079493;28;19947;-69
2022/02/01 09:09:47;;;;;;;;;;;9.50;93.70;;;;;;5078306;28;19916;-69
2022/02/01 09:12:14;;;;;;;;;;;9.50;93.60;;;;;;5077672;28;19916;-69
2022/02/01 09:14:40;;;;;;;;;;;9.50;93.50;;;;;;5078276;28;19913;-69
2022/02/01 09:17:06;;;;;;;;;;;9.60;93.40;;;;;;5078539;28;19951;-69
2022/02/01 09:19:32;;;;;;;;;;;9.60;93.30;;;;;;5078017;28;20442;-69
2022/02/01 09:21:58;;;;;;;;;;;9.60;93.30;;;;;;5077871;28;19962;-69
2022/02/01 09:24:24;;;;;;;;;;;9.70;93.20;;;;;;5077067;28;19919;-69
2022/02/01 09:26:50;;;;;;;;;;;9.70;93.10;;;;;;5076663;28;19912;-69
2022/02/01 09:29:17;;;;;;;;;;;9.80;93.00;;;;;;5078761;28;19957;-69
2022/02/01 09:31:43;;;;;;;;;;;9.80;93.00;;;;;;5077763;28;19916;-69
2022/02/01 09:34:08;;;;;;;;;;;9.90;93.00;;;;;;5077914;28;20301;-69
2022/02/01 09:36:34;;;;;;;;;;;9.90;92.80;;;;;;5078152;28;19955;-69
2022/02/01 09:39:00;;;;;;;;;;;10.00;92.80;;;;;;5076858;28;19908;-69
2022/02/01 09:41:26;;;;;;;;;;;10.00;92.70;;;;;;5077904;28;19912;-69
2022/02/01 09:43:55;;;;;;;;;;;10.10;92.50;;;;;;5077030;28;19921;-69
2022/02/01 09:46:21;;;;;;;;;;;10.10;92.30;;;;;;5077311;28;19912;-69
2022/02/01 09:48:46;;;;;;;;;;;10.20;92.20;;;;;;5077258;28;19963;-69
2022/02/01 09:51:12;;;;;;;;;;;10.20;92.10;;;;;;5074161;28;20053;-69
2022/02/01 09:53:38;;;;;;;;;;;10.30;92.00;;;;;;5077016;28;19913;-69
2022/02/01 09:56:04;;;;;;;;;;;10.30;92.20;;;;;;5075777;28;19912;-69
2022/02/01 09:58:31;;;;;;;;;;;10.30;92.10;;;;;;5077463;28;19962;-69
2022/02/01 10:00:57;;;;;;;;;;;10.30;91.90;;;;;;5078011;28;20011;-69
2022/02/01 10:03:24;;;;;;;;;;;10.30;91.70;;;;;;5077940;28;19940;-69
2022/02/01 10:06:09;;;;;;;;;;;10.30;91.70;;;;;;5077055;28;19912;-69
2022/02/01 10:08:36;;;;;;;;;;;10.30;91.50;;;;;;5071471;28;19912;-69
2022/02/01 10:11:01;;;;;;;;;;;10.40;91.50;;;;;;5077291;28;19913;-69
2022/02/01 10:13:28;;;;;;;;;;;10.40;91.20;;;;;;5077899;28;19915;-69
2022/02/01 10:16:13;;;;;;;;;;;10.40;91.30;;;;;;5077428;28;19934;-69
2022/02/01 10:18:39;;;;;;;;;;;10.40;91.40;;;;;;5074495;28;19912;-69
2022/02/01 10:21:11;;;;;;;;;;;10.50;91.40;;;;;;5076390;28;20393;-69
2022/02/01 10:23:38;;;;;;;;;;;10.50;91.30;;;;;;5077098;28;19995;-69
2022/02/01 10:26:13;;;;;;;;;;;10.50;91.20;;;;;;5070797;28;20363;-69
2022/02/01 10:29:04;;;;;;;;;;;10.60;91.10;;;;;;5077284;28;19919;-69
2022/02/01 10:31:41;;;;;;;;;;;10.60;91.10;;;;;;5075441;28;20034;-69
2022/02/01 10:37:23;;;;;;;;;;;10.70;91.10;;;;;;5075809;28;19965;-69
2022/02/01 10:39:56;;;;;;;;;;;10.60;91.20;;;;;;5077125;28;20372;-69
2022/02/01 10:42:22;;;;;;;;;;;10.70;91.30;;;;;;5075578;28;19913;-69
2022/02/01 10:44:49;;;;;;;;;;;10.70;91.20;;;;;;5076733;28;19917;-69
2022/02/01 10:47:29;;;;;;;;;;;10.70;91.20;;;;;;5076778;28;19912;-69
2022/02/01 10:49:54;;;;;;;;;;;10.80;91.20;;;;;;5075768;28;19919;-69
2022/02/01 10:52:20;;;;;;;;;;;10.80;91.10;;;;;;5076758;28;19916;-69
2022/02/01 10:54:46;;;;;;;;;;;10.80;91.10;;;;;;5077062;28;19912;-69
2022/02/01 10:57:12;;;;;;;;;;;10.80;91.00;;;;;;5075981;28;20003;-69
2022/02/01 10:59:38;;;;;;;;;;;10.80;91.00;;;;;;5077304;28;19912;-69
2022/02/01 11:02:05;;;;;;;;;;;10.90;90.80;;;;;;5076258;28;19966;-69
2022/02/01 11:04:33;;;;;;;;;;;10.90;90.80;;;;;;5064723;28;19999;-69
2022/02/01 11:06:59;;;;;;;;;;;10.90;90.80;;;;;;5077270;28;19966;-69
2022/02/01 11:09:28;;;;;;;;;;;11.00;90.80;;;;;;5077279;28;19908;-69
2022/02/01 11:11:55;;;;;;;;;;;11.00;90.60;;;;;;5078135;28;20290;-69
2022/02/01 11:14:24;;;;;;;;;;;11.00;90.60;;;;;;5080407;28;20077;-69
2022/02/01 11:17:03;;;;;;;;;;;11.10;90.60;;;;;;5080831;28;19966;-69
2022/02/01 11:19:29;;;;;;;;;;;11.10;90.70;;;;;;5079302;28;20290;-69
2022/02/01 11:21:56;;;;;;;;;;;11.10;90.50;;;;;;5080053;28;19916;-69
2022/02/01 11:24:34;;;;;;;;;;;11.10;90.40;;;;;;5079751;28;19913;-69
2022/02/01 11:27:03;;;;;;;;;;;11.20;90.50;;;;;;5077835;28;19956;-69
2022/02/01 11:29:40;;;;;;;;;;;11.20;90.50;;;;;;5077171;28;19912;-69
2022/02/01 11:32:15;;;;;;;;;;;11.20;90.30;;;;;;5079418;28;20332;-69
2022/02/01 11:34:41;;;;;;;;;;;11.20;90.50;;;;;;5080213;28;20371;-69
2022/02/01 11:37:10;;;;;;;;;;;11.30;90.50;;;;;;5080980;28;19993;-69
2022/02/01 11:39:49;;;;;;;;;;;11.30;90.60;;;;;;5080708;28;19916;-70
2022/02/01 11:42:15;;;;;;;;;;;11.30;90.60;;;;;;5080324;28;19908;-69
2022/02/01 11:44:41;;;;;;;;;;;11.30;90.70;;;;;;5078864;28;19939;-70
2022/02/01 11:47:09;;;;;;;;;;;11.40;90.70;;;;;;5079215;28;19912;-70
2022/02/01 11:49:35;;;;;;;;;;;11.40;90.80;;;;;;5084776;28;19970;-70
2022/02/01 11:52:11;;;;;;;;;;;11.40;90.80;;;;;;5081646;28;19912;-71
2022/02/01 11:54:38;;;;;;;;;;;11.40;90.90;;;;;;5079948;28;20279;-70
2022/02/01 11:57:10;;;;;;;;;;;11.50;90.70;;;;;;5079947;28;20330;-70
2022/02/01 11:59:36;;;;;;;;;;;11.50;90.70;;;;;;5077667;28;19912;-71
2022/02/01 12:02:06;;;;;;;;;;;11.60;90.80;;;;;;5077856;28;20394;-71
2022/02/01 12:04:40;;;;;;;;;;;11.60;90.80;;;;;;5075633;28;19935;-71
2022/02/01 12:07:07;;;;;;;;;;;11.60;90.90;;;;;;5090388;28;19908;-71
2022/02/01 12:09:33;;;;;;;;;;;11.70;90.90;;;;;;5079744;28;19920;-71
2022/02/01 12:12:00;;;;;;;;;;;11.80;90.90;;;;;;5079372;28;19913;-71
2022/02/01 12:14:26;;;;;;;;;;;11.80;90.90;;;;;;5075967;28;19912;-70
2022/02/01 12:16:53;;;;;;;;;;;11.80;90.90;;;;;;5080165;28;19915;-69
2022/02/01 12:19:24;;;;;;;;;;;11.90;90.80;;;;;;5079969;28;19908;-70
2022/02/01 12:21:57;;;;;;;;;;;11.90;90.80;;;;;;5078575;28;19921;-68
2022/02/01 12:24:27;;;;;;;;;;;11.90;90.90;;;;;;5077757;28;19912;-69
2022/02/01 12:26:53;;;;;;;;;;;12.00;90.40;;;;;;5075412;28;19913;-69
2022/02/01 12:29:18;;;;;;;;;;;12.10;90.40;;;;;;5075093;28;20012;-70
2022/02/01 12:31:44;;;;;;;;;;;12.10;90.40;;;;;;5079438;28;19923;-70
2022/02/01 12:34:13;;;;;;;;;;;12.20;90.40;;;;;;5079148;28;19913;-69
2022/02/01 12:36:41;;;;;;;;;;;12.30;90.50;;;;;;5078905;28;19913;-69
2022/02/01 12:39:22;;;;;;;;;;;12.30;90.60;;;;;;5067933;28;19919;-69
2022/02/01 12:42:00;;;;;;;;;;;12.50;90.30;;;;;;5069261;28;19912;-69
2022/02/01 12:47:00;;;;;;;;;;;12.70;90.00;;;;;;5079854;28;19963;-69
2022/02/01 12:49:31;;;;;;;;;;;12.80;88.60;;;;;;5079540;28;19908;-70
2022/02/01 12:51:57;;;;;;;;;;;12.80;88.50;;;;;;5079544;28;19970;-69
2022/02/01 12:54:27;;;;;;;;;;;12.90;88.10;;;;;;5079066;28;19909;-69
2022/02/01 12:57:13;;;;;;;;;;;12.90;88.50;;;;;;5078843;28;19916;-69
2022/02/01 12:59:48;;;;;;;;;;;12.90;87.50;;;;;;5078800;28;19909;-69
2022/02/01 13:02:15;;;;;;;;;;;12.80;88.10;;;;;;5078431;28;19920;-69
2022/02/01 13:04:41;;;;;;;;;;;12.80;88.60;;;;;;5077490;28;19908;-70
2022/02/01 13:07:24;;;;;;;;;;;12.80;88.40;;;;;;5079038;28;19919;-70
2022/02/01 13:13:04;;;;;;;;;;;12.90;88.40;;;;;;5078197;28;20329;-71
2022/02/01 13:15:39;;;;;;;;;;;12.80;88.70;;;;;;5079363;28;19920;-70
2022/02/01 13:20:03;;;;;;;;;;;12.80;89.20;;;;;;5078474;28;19995;-70
2022/02/01 13:21:28;;;;;;;;;;;12.90;88.60;;;;;;5078487;28;19909;-70
2022/02/01 13:23:57;;;;;;;;;;;12.90;89.00;;;;;;5035351;28;19936;-69
2022/02/01 13:26:26;;;;;;;;;;;12.90;89.50;;;;;;5065066;28;20438;-70
2022/02/01 13:29:00;;;;;;;;;;;12.90;89.60;;;;;;5077359;28;20398;-70
2022/02/01 13:31:29;;;;;;;;;;;12.90;90.00;;;;;;5077005;28;19923;-71
2022/02/01 13:33:58;;;;;;;;;;;13.00;90.00;;;;;;5076455;28;19909;-71
2022/02/01 13:36:24;;;;;;;;;;;13.00;90.00;;;;;;5077562;28;20330;-70
2022/02/01 13:39:00;;;;;;;;;;;13.00;90.20;;;;;;5077451;28;19912;-71
2022/02/01 13:41:27;;;;;;;;;;;13.10;90.30;;;;;;5078200;28;20364;-71
2022/02/01 13:43:53;;;;;;;;;;;13.20;90.10;;;;;;5064852;28;19920;-72
2022/02/01 13:46:20;;;;;;;;;;;13.30;90.10;;;;;;5076104;28;19963;-71
2022/02/01 13:48:56;;;;;;;;;;;13.40;90.20;;;;;;5077173;28;19919;-71
2022/02/01 13:51:22;;;;;;;;;;;13.50;89.70;;;;;;5066228;28;19908;-71
2022/02/01 13:53:55;;;;;;;;;;;13.50;89.60;;;;;;5075767;28;20000;-71
2022/02/01 13:56:25;;;;;;;;;;;13.50;89.90;;;;;;5074658;28;20324;-71
2022/02/01 13:58:50;;;;;;;;;;;13.50;89.40;;;;;;5077027;28;20005;-71
2022/02/01 14:01:17;;;;;;;;;;;13.50;89.70;;;;;;5075164;28;19916;-72
2022/02/01 14:03:51;;;;;;;;;;;13.50;88.90;;;;;;5076870;28;20390;-71
2022/02/01 14:35:00;;;;;;;;;;;13.40;89.40;;;;;;5076607;28;19916;-71
2022/02/01 14:37:40;;;;;;;;;;;13.40;88.80;;;;;;5073504;28;19912;-70
2022/02/01 14:45:35;;;;;;;;;;;13.30;89.00;;;;;;5075364;28;19920;-72
2022/02/01 14:48:00;;;;;;;;;;;13.30;89.20;;;;;;5079208;28;20299;-70
2022/02/01 14:50:26;;;;;;;;;;;13.30;88.60;;;;;;5081361;28;19916;-71
2022/02/01 14:52:52;;;;;;;;;;;13.30;88.80;;;;;;5080987;28;19967;-70
2022/02/01 14:55:22;;;;;;;;;;;13.20;88.60;;;;;;5079899;28;19919;-72
2022/02/01 15:06:44;;;;;;;;;;;13.00;88.60;;;;;;5076965;28;19927;-70
2022/02/01 15:11:51;;;;;;;;;;;13.00;89.20;;;;;;5075825;28;19923;-71
2022/02/01 15:14:19;;;;;;;;;;;12.90;89.00;;;;;;5079247;28;19928;-70
2022/02/01 15:16:45;;;;;;;;;;;12.90;89.30;;;;;;5076762;28;19931;-70
2022/02/01 15:19:10;;;;;;;;;;;12.80;89.20;;;;;;5078923;28;19912;-70
2022/02/01 15:21:36;;;;;;;;;;;12.80;89.30;;;;;;5080466;28;20001;-71
2022/02/01 15:24:02;;;;;;;;;;;12.80;89.60;;;;;;5080133;28;20295;-72
2022/02/01 15:26:27;;;;;;;;;;;12.70;89.70;;;;;;5077811;28;19916;-72
2022/02/01 15:28:53;;;;;;;;;;;12.70;89.60;;;;;;5079482;28;19912;-71
2022/02/01 15:31:19;;;;;;;;;;;12.70;89.90;;;;;;5075335;28;19908;-72
2022/02/01 15:33:45;;;;;;;;;;;12.60;90.00;;;;;;5077527;28;19912;-71
2022/02/01 15:36:12;;;;;;;;;;;12.60;90.10;;;;;;5080590;28;19916;-72
2022/02/01 15:38:42;;;;;;;;;;;12.60;90.20;;;;;;5079109;28;19919;-72
2022/02/01 15:57:14;;;;;;;;;;;12.40;90.50;;;;;;5075380;28;20036;-72
2022/02/01 15:59:41;;;;;;;;;;;12.40;90.60;;;;;;5078811;28;19912;-69
2022/02/01 16:02:09;;;;;;;;;;;12.30;90.70;;;;;;5078318;28;20290;-71
2022/02/01 16:04:36;;;;;;;;;;;12.30;90.80;;;;;;5079533;28;20367;-71
2022/02/01 16:07:06;;;;;;;;;;;12.20;90.90;;;;;;5078414;28;19924;-70
2022/02/01 16:12:12;;;;;;;;;;;12.20;91.10;;;;;;5079739;28;19918;-71
2022/02/01 16:14:37;;;;;;;;;;;12.20;91.10;;;;;;5080387;28;19919;-71
2022/02/01 16:17:03;;;;;;;;;;;12.20;91.20;;;;;;5080113;28;19995;-70
2022/02/01 16:19:29;;;;;;;;;;;12.20;91.30;;;;;;5075725;28;19912;-70
2022/02/01 16:21:54;;;;;;;;;;;12.10;91.30;;;;;;5079029;28;20414;-70
2022/02/01 16:24:20;;;;;;;;;;;12.10;91.30;;;;;;5077448;28;20367;-72
2022/02/01 16:26:46;;;;;;;;;;;12.10;91.40;;;;;;5078461;28;20364;-70
2022/02/01 16:29:11;;;;;;;;;;;12.00;91.40;;;;;;5078041;28;19923;-70
2022/02/01 16:31:37;;;;;;;;;;;12.00;91.50;;;;;;5078185;28;19927;-70
2022/02/01 16:34:03;;;;;;;;;;;11.90;91.50;;;;;;5078282;28;19919;-71
2022/02/01 16:36:30;;;;;;;;;;;11.90;91.60;;;;;;5076612;28;20338;-71
2022/02/01 16:38:56;;;;;;;;;;;11.90;91.60;;;;;;5078359;28;19916;-71
2022/02/01 16:41:23;;;;;;;;;;;11.90;91.60;;;;;;5078606;28;19908;-70
2022/02/01 16:43:48;;;;;;;;;;;11.80;91.70;;;;;;5077249;28;19928;-72
2022/02/01 16:46:14;;;;;;;;;;;11.80;92.10;;;;;;5062063;28;19913;-70
2022/02/01 16:48:40;;;;;;;;;;;11.80;91.90;;;;;;5078858;28;19924;-69
2022/02/01 16:51:08;;;;;;;;;;;11.70;91.80;;;;;;5078008;28;20355;-71
2022/02/01 16:53:39;;;;;;;;;;;11.70;91.90;;;;;;5078667;28;19948;-71
2022/02/01 16:58:38;;;;;;;;;;;11.70;92.10;;;;;;5075608;28;19913;-72
2022/02/01 17:01:05;;;;;;;;;;;11.60;92.10;;;;;;5077785;28;19913;-72
2022/02/01 17:03:31;;;;;;;;;;;11.60;92.20;;;;;;5072925;28;19916;-71
2022/02/01 17:05:57;;;;;;;;;;;11.60;92.30;;;;;;5071077;28;19924;-72